createdAt,value
2022-08-19T00:01:29.262Z,12.65
2022-08-19T00:05:32.605Z,12.00
2022-08-19T00:09:34.624Z,14.65
2022-08-19T00:13:36.411Z,13.05
2022-08-19T00:17:41.949Z,16.65
2022-08-19T00:21:44.145Z,13.60
2022-08-19T00:25:48.778Z,14.60
2022-08-19T00:29:52.715Z,15.90
2022-08-19T00:33:55.065Z,14.88
2022-08-19T00:37:57.068Z,17.90
2022-08-19T00:41:58.534Z,15.43
2022-08-19T00:46:00.310Z,17.83
2022-08-19T00:50:01.818Z,17.58
2022-08-19T00:54:04.736Z,14.70
2022-08-19T00:58:12.885Z,15.38
2022-08-19T01:02:16.411Z,15.95
2022-08-19T01:06:19.877Z,18.17
2022-08-19T01:10:27.610Z,16.08
2022-08-19T01:14:30.119Z,18.88
2022-08-19T01:18:33.386Z,18.13
2022-08-19T01:22:45.168Z,16.02
2022-08-19T01:26:48.165Z,17.27
2022-08-19T01:30:51.083Z,19.13
2022-08-19T01:34:52.731Z,19.23
2022-08-19T01:38:56.238Z,18.25
2022-08-19T01:42:59.018Z,22.33
2022-08-19T01:47:00.481Z,18.48
2022-08-19T01:51:02.187Z,19.30
2022-08-19T01:55:06.759Z,19.08
2022-08-19T01:59:13.072Z,16.85
2022-08-19T02:03:14.879Z,19.92
2022-08-19T02:07:16.317Z,20.98
2022-08-19T02:11:27.918Z,18.23
2022-08-19T02:15:33.021Z,18.35
2022-08-19T02:19:34.598Z,16.48
2022-08-19T02:23:36.062Z,18.58
2022-08-19T02:27:38.058Z,16.50
2022-08-19T02:31:39.583Z,19.52
2022-08-19T02:35:45.191Z,17.10
2022-08-19T02:39:46.902Z,20.83
2022-08-19T02:44:14.270Z,18.17
2022-08-19T02:48:17.937Z,17.35
2022-08-19T02:52:24.266Z,20.52
2022-08-19T02:56:27.994Z,17.90
2022-08-19T03:00:29.487Z,17.42
2022-08-19T03:04:30.936Z,18.00
2022-08-19T03:08:32.447Z,17.58
2022-08-19T03:12:37.438Z,21.00
2022-08-19T03:16:48.526Z,18.20
2022-08-19T03:20:53.831Z,20.42
2022-08-19T03:24:55.299Z,17.10
2022-08-19T03:28:58.711Z,17.58
2022-08-19T03:33:00.392Z,18.98
2022-08-19T03:37:06.999Z,18.00
2022-08-19T03:41:12.552Z,18.80
2022-08-19T03:45:14.015Z,20.60
2022-08-19T03:49:16.228Z,19.80
2022-08-19T03:53:20.026Z,18.33
2022-08-19T03:57:21.577Z,21.42
2022-08-19T04:01:35.126Z,21.00
2022-08-19T04:05:38.847Z,19.02
2022-08-19T04:09:40.417Z,21.83
2022-08-19T04:13:44.327Z,21.60
2022-08-19T04:17:45.878Z,20.20
2022-08-19T04:21:50.965Z,23.83
2022-08-19T04:25:52.506Z,21.30
2022-08-19T04:29:54.599Z,25.80
2022-08-19T04:34:00.938Z,26.23
2022-08-19T04:38:02.425Z,29.35
2022-08-19T04:42:22.441Z,33.03
2022-08-19T04:46:40.519Z,36.75
2022-08-19T04:50:58.644Z,34.22
2022-08-19T04:55:00.493Z,30.15
2022-08-19T04:59:05.230Z,30.20
2022-08-19T05:03:07.713Z,25.50
2022-08-19T05:07:10.271Z,26.38
2022-08-19T05:11:16.067Z,25.40
2022-08-19T05:15:17.736Z,24.25
2022-08-19T05:19:37.906Z,22.35
2022-08-19T05:23:39.564Z,17.50
2022-08-19T05:27:42.679Z,16.48
2022-08-19T05:31:44.790Z,17.60
2022-08-19T05:35:47.169Z,14.50
2022-08-19T05:39:55.050Z,18.17
2022-08-19T05:43:58.485Z,12.77
2022-08-19T05:47:59.951Z,13.88
2022-08-19T05:52:07.053Z,15.68
2022-08-19T05:56:12.300Z,15.80
2022-08-19T06:00:14.825Z,14.48
2022-08-19T06:04:16.262Z,14.05
2022-08-19T06:08:19.260Z,19.33
2022-08-19T06:12:20.758Z,16.80
2022-08-19T06:16:23.339Z,16.23
2022-08-19T06:20:52.368Z,16.23
2022-08-19T06:24:46.245Z,15.07
2022-08-19T06:28:50.617Z,16.67
2022-08-19T06:32:52.282Z,14.30
2022-08-19T06:36:56.273Z,14.43
2022-08-19T06:41:07.634Z,13.00
2022-08-19T06:45:09.867Z,14.45
2022-08-19T06:49:14.925Z,15.35
2022-08-19T06:53:16.549Z,15.43
2022-08-19T06:57:18.056Z,18.33
2022-08-19T07:01:20.806Z,17.73
2022-08-19T07:05:22.613Z,14.98
2022-08-19T07:09:24.093Z,18.10
2022-08-19T07:13:25.605Z,16.23
2022-08-19T07:17:27.578Z,18.50
2022-08-19T07:21:29.889Z,16.23
2022-08-19T07:25:32.114Z,16.48
2022-08-19T07:29:36.359Z,17.15
2022-08-19T07:33:39.872Z,15.57
2022-08-19T07:37:45.144Z,15.13
2022-08-19T07:41:47.800Z,19.80
2022-08-19T07:45:49.417Z,17.27
2022-08-19T07:49:50.873Z,15.82
2022-08-19T07:53:52.402Z,16.50
2022-08-19T07:57:54.575Z,14.88
2022-08-19T08:01:57.432Z,17.60
2022-08-19T08:06:17.270Z,15.45
2022-08-19T08:10:21.089Z,15.93
2022-08-19T08:14:29.697Z,26.90
2022-08-19T08:18:42.365Z,15.73
2022-08-19T08:23:04.217Z,32.58
2022-08-19T08:27:11.256Z,15.85
2022-08-19T08:31:12.975Z,15.88
2022-08-19T08:35:17.627Z,16.80
2022-08-19T08:39:22.237Z,16.02
2022-08-19T08:43:38.030Z,22.08
2022-08-19T08:47:42.231Z,22.15
2022-08-19T08:51:59.269Z,20.30
2022-08-19T08:56:04.133Z,19.67
2022-08-19T09:00:11.042Z,19.30
2022-08-19T09:04:18.377Z,18.55
2022-08-19T09:08:58.449Z,17.33
2022-08-19T09:13:28.410Z,26.30
2022-08-19T09:17:34.562Z,18.83
2022-08-19T09:21:39.219Z,24.15
2022-08-19T09:25:42.327Z,19.70
2022-08-19T09:29:43.807Z,34.45
2022-08-19T09:33:45.564Z,19.42
2022-08-19T09:37:47.042Z,41.47
2022-08-19T09:41:50.599Z,19.40
2022-08-19T09:45:53.528Z,20.70
2022-08-19T09:49:55.942Z,20.20
2022-08-19T09:54:02.068Z,16.88
2022-08-19T09:58:06.461Z,17.52
2022-08-19T10:02:11.014Z,18.58
2022-08-19T10:06:14.982Z,16.38
2022-08-19T10:10:18.953Z,24.17
2022-08-19T10:14:24.276Z,15.25
2022-08-19T10:18:26.838Z,20.02
2022-08-19T10:22:28.288Z,14.70
2022-08-19T10:26:34.492Z,14.10
2022-08-19T10:30:42.908Z,16.08
2022-08-19T10:34:48.094Z,10.38
2022-08-19T10:38:56.622Z,15.80
2022-08-19T10:42:58.515Z,15.13
2022-08-19T10:47:00.441Z,16.17
2022-08-19T10:51:22.720Z,27.23
2022-08-19T10:55:51.560Z,23.48
2022-08-19T10:59:53.156Z,22.00
2022-08-19T11:03:54.630Z,21.13
2022-08-19T11:07:56.258Z,16.95
2022-08-19T11:11:58.384Z,15.15
2022-08-19T11:16:14.872Z,14.50
2022-08-19T11:20:16.424Z,21.25
2022-08-19T11:24:21.967Z,18.38
2022-08-19T11:28:23.447Z,15.48
2022-08-19T11:32:25.475Z,19.92
2022-08-19T11:36:27.610Z,14.25
2022-08-19T11:40:29.116Z,14.98
2022-08-19T11:44:31.361Z,16.52
2022-08-19T11:48:32.867Z,23.52
2022-08-19T11:52:34.495Z,17.30
2022-08-19T11:56:38.424Z,13.65
2022-08-19T12:00:41.065Z,12.73
2022-08-19T12:04:44.785Z,18.40
2022-08-19T12:08:46.651Z,12.05
2022-08-19T12:12:58.043Z,14.02
2022-08-19T12:17:00.992Z,15.60
2022-08-19T12:21:02.747Z,15.13
2022-08-19T12:25:05.955Z,31.73
2022-08-19T12:29:09.352Z,11.32
2022-08-19T12:33:10.804Z,21.48
2022-08-19T12:37:13.127Z,13.73
2022-08-19T12:41:16.363Z,25.30
2022-08-19T12:45:17.896Z,13.75
2022-08-19T12:49:53.067Z,12.57
2022-08-19T12:53:41.340Z,11.38
2022-08-19T12:57:42.757Z,10.15
2022-08-19T13:01:45.077Z,9.05
2022-08-19T13:05:46.548Z,10.15
2022-08-19T13:09:48.053Z,10.77
2022-08-19T13:13:51.738Z,9.07
2022-08-19T13:17:56.968Z,22.02
2022-08-19T13:22:01.755Z,16.10
2022-08-19T13:26:06.505Z,11.05
2022-08-19T13:30:29.413Z,9.35
2022-08-19T13:34:36.032Z,10.13
2022-08-19T13:38:38.803Z,9.77
2022-08-19T13:42:40.837Z,10.02
2022-08-19T13:46:45.984Z,9.57
2022-08-19T13:50:49.017Z,11.02
2022-08-19T13:54:50.426Z,13.77
2022-08-19T13:58:51.855Z,16.98
2022-08-19T14:02:55.514Z,18.33
2022-08-19T14:06:57.035Z,15.63
2022-08-19T14:10:58.887Z,18.88
2022-08-19T14:15:10.577Z,14.15
2022-08-19T14:19:12.009Z,13.02
2022-08-19T14:23:14.572Z,13.00
2022-08-19T14:27:16.054Z,13.15
2022-08-19T14:31:26.788Z,11.68
2022-08-19T14:35:36.793Z,11.88
2022-08-19T14:39:39.251Z,10.13
2022-08-19T14:43:40.922Z,10.73
2022-08-19T14:47:42.433Z,9.93
2022-08-19T14:51:47.864Z,9.05
2022-08-19T14:55:49.378Z,9.35
2022-08-19T14:59:50.899Z,10.05
2022-08-19T15:03:55.794Z,13.45
2022-08-19T15:07:57.581Z,20.05
2022-08-19T15:12:00.635Z,13.30
2022-08-19T15:16:02.481Z,14.52
2022-08-19T15:20:05.338Z,14.23
2022-08-19T15:24:07.069Z,15.65
2022-08-19T15:28:10.469Z,14.98
2022-08-19T15:32:11.972Z,14.07
2022-08-19T15:36:13.467Z,15.00
2022-08-19T15:40:21.276Z,18.55
2022-08-19T15:44:22.897Z,13.48
2022-08-19T15:48:24.323Z,13.52
2022-08-19T15:52:25.751Z,14.43
2022-08-19T15:56:27.718Z,12.48
2022-08-19T16:00:50.057Z,12.48
2022-08-19T16:05:12.943Z,14.13
2022-08-19T16:09:16.269Z,11.02
2022-08-19T16:13:18.086Z,12.13
2022-08-19T16:17:19.588Z,10.75
2022-08-19T16:21:23.004Z,9.85
2022-08-19T16:25:29.901Z,12.38
2022-08-19T16:29:34.608Z,10.25
2022-08-19T16:33:41.401Z,8.90
2022-08-19T16:37:42.880Z,8.70
2022-08-19T16:41:45.737Z,9.40
2022-08-19T16:45:49.387Z,9.35
2022-08-19T16:49:52.966Z,9.02
2022-08-19T16:53:56.602Z,8.07
2022-08-19T16:57:58.088Z,8.25
2022-08-19T17:01:59.629Z,9.30
2022-08-19T17:06:03.537Z,8.13
2022-08-19T17:10:06.102Z,11.20
2022-08-19T17:14:08.374Z,8.13
2022-08-19T17:18:12.482Z,7.57
2022-08-19T17:22:13.947Z,7.43
2022-08-19T17:26:18.574Z,7.53
2022-08-19T17:30:22.501Z,6.95
2022-08-19T17:34:28.104Z,7.60
2022-08-19T17:38:33.053Z,7.82
2022-08-19T17:42:36.566Z,9.85
2022-08-19T17:46:38.111Z,7.70
2022-08-19T17:50:40.391Z,7.82
2022-08-19T17:54:42.136Z,7.53
2022-08-19T17:58:45.007Z,10.63
2022-08-19T18:02:55.677Z,11.30
2022-08-19T18:07:04.184Z,10.43
2022-08-19T18:11:09.514Z,8.15
2022-08-19T18:15:11.731Z,8.00
2022-08-19T18:19:13.315Z,11.13
2022-08-19T18:23:44.676Z,10.80
2022-08-19T18:27:36.940Z,10.25
2022-08-19T18:31:38.799Z,12.55
2022-08-19T18:35:45.483Z,13.13
2022-08-19T18:40:05.267Z,17.27
2022-08-19T18:44:25.234Z,18.17
2022-08-19T18:48:48.831Z,19.15
2022-08-19T18:52:50.349Z,18.15
2022-08-19T18:56:55.616Z,20.98
2022-08-19T19:00:57.554Z,25.40
2022-08-19T19:05:00.349Z,21.45
2022-08-19T19:09:04.596Z,23.17
2022-08-19T19:13:06.107Z,22.40
2022-08-19T19:17:14.773Z,23.08
2022-08-19T19:21:16.329Z,24.33
2022-08-19T19:25:19.881Z,21.83
2022-08-19T19:29:21.696Z,23.90
2022-08-19T19:33:23.682Z,28.10
2022-08-19T19:37:25.274Z,22.10
2022-08-19T19:41:26.854Z,21.05
2022-08-19T19:45:30.322Z,20.50
2022-08-19T19:49:32.254Z,20.35
2022-08-19T19:53:33.850Z,22.48
2022-08-19T19:57:35.440Z,23.48
2022-08-19T20:01:36.973Z,21.52
2022-08-19T20:05:39.385Z,19.80
2022-08-19T20:09:58.817Z,21.02
2022-08-19T20:14:05.142Z,21.17
2022-08-19T20:18:06.621Z,18.73
2022-08-19T20:22:08.338Z,19.10
2022-08-19T20:26:10.295Z,19.17
2022-08-19T20:30:24.872Z,15.77
2022-08-19T20:34:27.946Z,17.50
2022-08-19T20:38:29.422Z,16.45
2022-08-19T20:42:30.880Z,15.20
2022-08-19T20:46:32.724Z,15.57
2022-08-19T20:50:35.845Z,15.25
2022-08-19T20:54:37.324Z,15.68
2022-08-19T20:58:38.907Z,17.38
2022-08-19T21:02:40.408Z,16.60
2022-08-19T21:06:45.332Z,16.48
2022-08-19T21:10:49.357Z,17.45
2022-08-19T21:14:50.798Z,20.02
2022-08-19T21:18:53.220Z,18.73
2022-08-19T21:22:54.679Z,18.08
2022-08-19T21:26:56.136Z,18.48
2022-08-19T21:30:59.145Z,17.60
2022-08-19T21:35:02.221Z,19.67
2022-08-19T21:39:04.207Z,19.90
2022-08-19T21:43:06.595Z,17.50
2022-08-19T21:47:08.182Z,17.50
2022-08-19T21:51:12.148Z,17.92
2022-08-19T21:55:14.661Z,20.27
2022-08-19T21:59:17.022Z,16.98
2022-08-19T22:03:19.089Z,16.45
2022-08-19T22:07:22.128Z,16.15
2022-08-19T22:11:25.368Z,17.77
2022-08-19T22:15:29.132Z,16.25
2022-08-19T22:19:30.590Z,19.58
2022-08-19T22:23:32.380Z,18.80
2022-08-19T22:27:34.206Z,15.68
2022-08-19T22:31:37.515Z,15.70
2022-08-19T22:35:41.139Z,19.17
2022-08-19T22:39:42.639Z,15.40
2022-08-19T22:43:48.355Z,16.95
2022-08-19T22:47:49.817Z,15.75
2022-08-19T22:52:09.817Z,17.67
2022-08-19T22:56:15.373Z,16.33
2022-08-19T23:00:17.110Z,17.98
2022-08-19T23:04:18.572Z,18.85
2022-08-19T23:08:20.060Z,21.23
2022-08-19T23:12:31.506Z,18.35
2022-08-19T23:16:34.809Z,21.00
2022-08-19T23:20:38.732Z,20.10
2022-08-19T23:24:40.189Z,22.17
2022-08-19T23:29:00.017Z,21.17
2022-08-19T23:33:11.024Z,23.13
2022-08-19T23:37:14.834Z,20.83
2022-08-19T23:41:18.385Z,19.35
2022-08-19T23:45:22.943Z,23.65
2022-08-19T23:49:27.582Z,20.75
2022-08-19T23:53:29.448Z,18.38
2022-08-19T23:57:30.968Z,20.98
